createdAt,value
2023-02-07T00:01:35.086Z,97384.25
2023-02-07T00:04:03.937Z,97387.98
2023-02-07T00:06:35.196Z,97388.08
2023-02-07T00:09:06.644Z,97392.77
2023-02-07T00:11:36.931Z,97395.64
2023-02-07T00:14:05.188Z,97401.33
2023-02-07T00:16:34.151Z,97398.42
2023-02-07T00:19:02.377Z,97397.41
2023-02-07T00:21:30.553Z,97396.84
2023-02-07T00:23:58.927Z,97398.19
2023-02-07T00:26:28.433Z,97401.08
2023-02-07T00:28:57.727Z,97403.90
2023-02-07T00:31:29.093Z,97404.39
2023-02-07T00:34:01.518Z,97400.96
2023-02-07T00:36:31.298Z,97399.77
2023-02-07T00:39:02.303Z,97397.88
2023-02-07T00:41:31.417Z,97400.70
2023-02-07T00:44:01.514Z,97396.67
2023-02-07T00:46:31.031Z,97396.58
2023-02-07T00:48:59.314Z,97393.98
2023-02-07T00:51:27.682Z,97393.44
2023-02-07T00:53:57.340Z,97401.98
2023-02-07T00:56:27.883Z,97396.42
2023-02-07T00:58:56.806Z,97387.27
2023-02-07T01:01:27.600Z,97386.14
2023-02-07T01:03:58.028Z,97388.35
2023-02-07T01:06:28.195Z,97381.19
2023-02-07T01:08:59.239Z,97380.23
2023-02-07T01:11:29.955Z,97377.41
2023-02-07T01:14:01.126Z,97370.02
2023-02-07T01:16:35.037Z,97368.33
2023-02-07T01:19:07.620Z,97364.94
2023-02-07T01:21:36.373Z,97358.54
2023-02-07T01:24:07.653Z,97352.06
2023-02-07T01:26:37.377Z,97345.76
2023-02-07T01:29:06.227Z,97345.34
2023-02-07T01:31:34.452Z,97353.85
2023-02-07T01:34:05.411Z,97358.92
2023-02-07T01:36:34.235Z,97364.44
2023-02-07T01:39:04.140Z,97364.84
2023-02-07T01:41:35.888Z,97362.09
2023-02-07T01:44:08.779Z,97368.89
2023-02-07T01:46:37.701Z,97366.73
2023-02-07T01:49:10.130Z,97368.04
2023-02-07T01:51:44.482Z,97371.08
2023-02-07T01:54:14.098Z,97370.48
2023-02-07T01:56:46.995Z,97368.88
2023-02-07T01:59:16.757Z,97365.80
2023-02-07T02:01:46.532Z,97364.91
2023-02-07T02:04:14.637Z,97356.79
2023-02-07T02:06:44.250Z,97362.10
2023-02-07T02:09:16.626Z,97350.09
2023-02-07T02:12:02.546Z,97348.08
2023-02-07T02:14:30.783Z,97346.06
2023-02-07T02:17:10.123Z,97346.20
2023-02-07T02:20:00.204Z,97343.07
2023-02-07T02:23:06.151Z,97349.13
2023-02-07T02:26:03.110Z,97354.91
2023-02-07T02:29:09.707Z,97358.33
2023-02-07T02:31:57.194Z,97360.23
2023-02-07T02:34:31.531Z,97361.73
2023-02-07T02:37:17.936Z,97363.71
2023-02-07T02:40:01.403Z,97357.77
2023-02-07T02:42:42.445Z,97357.52
2023-02-07T02:45:24.332Z,97351.37
2023-02-07T02:47:54.233Z,97347.77
2023-02-07T02:50:26.952Z,97340.17
2023-02-07T02:52:55.644Z,97335.05
2023-02-07T02:55:41.705Z,97335.06
2023-02-07T02:58:25.242Z,97338.70
2023-02-07T03:00:56.835Z,97336.09
2023-02-07T03:03:55.016Z,97334.36
2023-02-07T03:06:44.752Z,97337.40
2023-02-07T03:09:37.815Z,97337.34
2023-02-07T03:12:30.767Z,97338.67
2023-02-07T03:15:12.382Z,97332.98
2023-02-07T03:17:56.294Z,97336.78
2023-02-07T03:20:33.075Z,97334.08
2023-02-07T03:23:04.714Z,97339.48
2023-02-07T03:25:33.728Z,97341.08
2023-02-07T03:28:05.108Z,97343.70
2023-02-07T03:30:36.247Z,97340.61
2023-02-07T03:33:10.130Z,97342.58
2023-02-07T03:35:44.528Z,97347.22
2023-02-07T03:38:13.888Z,97344.70
2023-02-07T03:40:48.300Z,97351.77
2023-02-07T03:43:20.944Z,97356.80
2023-02-07T03:45:49.101Z,97359.81
2023-02-07T03:48:17.375Z,97352.17
2023-02-07T03:50:47.698Z,97332.45
2023-02-07T03:53:16.065Z,97311.84
2023-02-07T03:55:44.252Z,97302.27
2023-02-07T03:58:12.580Z,97308.71
2023-02-07T04:00:41.057Z,97313.89
2023-02-07T04:03:09.289Z,97328.30
2023-02-07T04:05:37.792Z,97333.05
2023-02-07T04:08:06.466Z,97329.59
2023-02-07T04:10:34.855Z,97330.91
2023-02-07T04:13:03.223Z,97322.80
2023-02-07T04:15:32.095Z,97324.41
2023-02-07T04:18:00.123Z,97320.86
2023-02-07T04:20:28.168Z,97316.56
2023-02-07T04:22:56.154Z,97320.13
2023-02-07T04:25:24.280Z,97323.30
2023-02-07T04:27:52.745Z,97320.30
2023-02-07T04:30:20.896Z,97318.56
2023-02-07T04:32:48.988Z,97317.90
2023-02-07T04:35:17.072Z,97312.04
2023-02-07T04:37:45.451Z,97317.01
2023-02-07T04:40:13.464Z,97315.69
2023-02-07T04:42:41.595Z,97314.87
2023-02-07T04:45:10.219Z,97318.05
2023-02-07T04:47:38.281Z,97320.37
2023-02-07T04:50:06.892Z,97318.98
2023-02-07T04:52:34.888Z,97320.20
2023-02-07T04:55:03.993Z,97318.80
2023-02-07T04:57:32.168Z,97320.92
2023-02-07T05:00:00.263Z,97318.20
2023-02-07T05:02:28.441Z,97314.96
2023-02-07T05:04:57.013Z,97313.92
2023-02-07T05:07:25.169Z,97320.05
2023-02-07T05:09:53.861Z,97317.77
2023-02-07T05:12:21.990Z,97317.54
2023-02-07T05:14:50.125Z,97314.98
2023-02-07T05:17:18.280Z,97315.27
2023-02-07T05:19:46.335Z,97313.27
2023-02-07T05:22:14.527Z,97318.52
2023-02-07T05:24:44.030Z,97315.23
2023-02-07T05:27:12.510Z,97311.73
2023-02-07T05:29:40.651Z,97315.05
2023-02-07T05:32:31.598Z,97322.42
2023-02-07T05:35:00.728Z,97324.41
2023-02-07T05:37:28.726Z,97331.45
2023-02-07T05:39:56.930Z,97333.52
2023-02-07T05:42:25.173Z,97332.31
2023-02-07T05:44:53.993Z,97333.46
2023-02-07T05:47:22.367Z,97338.28
2023-02-07T05:49:50.540Z,97336.90
2023-02-07T05:52:18.732Z,97336.95
2023-02-07T05:54:46.785Z,97335.17
2023-02-07T05:57:14.884Z,97337.48
2023-02-07T05:59:43.147Z,97340.88
2023-02-07T06:02:11.390Z,97337.61
2023-02-07T06:04:39.576Z,97335.76
2023-02-07T06:07:07.733Z,97335.08
2023-02-07T06:09:36.123Z,97334.15
2023-02-07T06:12:05.356Z,97330.73
2023-02-07T06:14:33.598Z,97335.26
2023-02-07T06:17:01.672Z,97336.21
2023-02-07T06:19:29.925Z,97338.92
2023-02-07T06:21:59.346Z,97338.70
2023-02-07T06:24:27.621Z,97336.08
2023-02-07T06:26:55.824Z,97338.16
2023-02-07T06:29:23.939Z,97342.20
2023-02-07T06:31:52.153Z,97347.53
2023-02-07T06:34:20.733Z,97348.71
2023-02-07T06:36:48.981Z,97347.55
2023-02-07T06:39:17.280Z,97344.66
2023-02-07T06:41:45.656Z,97340.02
2023-02-07T06:44:13.932Z,97344.95
2023-02-07T06:46:42.110Z,97347.48
2023-02-07T06:49:11.342Z,97363.08
2023-02-07T06:51:39.476Z,97366.41
2023-02-07T06:54:10.110Z,97364.34
2023-02-07T06:56:38.209Z,97359.13
2023-02-07T06:59:06.474Z,97356.97
2023-02-07T07:01:34.840Z,97351.40
2023-02-07T07:04:03.008Z,97349.80
2023-02-07T07:06:31.500Z,97343.60
2023-02-07T07:08:59.665Z,97339.54
2023-02-07T07:11:27.802Z,97343.96
2023-02-07T07:13:56.014Z,97341.80
2023-02-07T07:16:24.212Z,97342.00
2023-02-07T07:18:52.406Z,97346.65
2023-02-07T07:21:20.672Z,97351.60
2023-02-07T07:23:48.824Z,97349.90
2023-02-07T07:26:16.982Z,97350.45
2023-02-07T07:28:45.572Z,97347.49
2023-02-07T07:31:14.133Z,97345.55
2023-02-07T07:33:42.632Z,97343.30
2023-02-07T07:36:10.888Z,97346.65
2023-02-07T07:38:40.078Z,97353.53
2023-02-07T07:41:08.567Z,97349.11
2023-02-07T07:43:36.634Z,97351.44
2023-02-07T07:46:04.932Z,97358.76
2023-02-07T07:48:33.373Z,97359.33
2023-02-07T07:51:01.680Z,97360.92
2023-02-07T07:53:29.858Z,97362.24
2023-02-07T07:55:58.038Z,97373.06
2023-02-07T07:58:27.160Z,97369.24
2023-02-07T08:00:55.476Z,97374.63
2023-02-07T08:03:24.183Z,97369.44
2023-02-07T08:05:52.565Z,97366.93
2023-02-07T08:08:20.734Z,97366.05
2023-02-07T08:10:49.623Z,97359.40
2023-02-07T08:13:18.620Z,97350.80
2023-02-07T08:15:46.901Z,97342.73
2023-02-07T08:18:15.041Z,97339.54
2023-02-07T08:20:43.700Z,97338.91
2023-02-07T08:23:12.212Z,97337.44
2023-02-07T08:25:41.588Z,97338.27
2023-02-07T08:28:10.876Z,97342.14
2023-02-07T08:30:39.687Z,97330.60
2023-02-07T08:33:08.717Z,97326.34
2023-02-07T08:35:36.912Z,97320.95
2023-02-07T08:38:05.110Z,97313.09
2023-02-07T08:40:33.242Z,97307.80
2023-02-07T08:43:01.378Z,97303.44
2023-02-07T08:45:29.525Z,97298.41
2023-02-07T08:47:57.662Z,97297.98
2023-02-07T08:50:25.829Z,97298.69
2023-02-07T08:52:54.021Z,97292.25
2023-02-07T08:55:22.382Z,97291.86
2023-02-07T08:57:50.458Z,97286.50
2023-02-07T09:00:19.047Z,97278.55
2023-02-07T09:02:47.597Z,97281.85
2023-02-07T09:05:16.036Z,97281.46
2023-02-07T09:07:44.377Z,97280.58
2023-02-07T09:10:12.651Z,97284.32
2023-02-07T09:12:40.824Z,97280.66
2023-02-07T09:15:09.613Z,97281.68
2023-02-07T09:17:37.908Z,97280.13
2023-02-07T09:20:07.048Z,97279.37
2023-02-07T09:22:55.239Z,97279.36
2023-02-07T09:25:24.023Z,97281.38
2023-02-07T09:27:52.340Z,97279.88
2023-02-07T09:30:20.467Z,97279.41
2023-02-07T09:32:48.584Z,97277.48
2023-02-07T09:35:16.713Z,97272.41
2023-02-07T09:37:49.673Z,97271.65
2023-02-07T09:40:19.709Z,97270.18
2023-02-07T09:43:03.788Z,97265.56
2023-02-07T09:45:38.893Z,97262.41
2023-02-07T09:48:24.992Z,97260.05
2023-02-07T09:50:56.272Z,97261.14
2023-02-07T09:53:57.913Z,97258.14
2023-02-07T09:56:29.702Z,97260.39
2023-02-07T09:59:00.920Z,97258.77
2023-02-07T10:01:44.341Z,97255.85
2023-02-07T10:04:18.454Z,97260.02
2023-02-07T10:06:52.752Z,97251.69
2023-02-07T10:09:42.394Z,97248.38
2023-02-07T10:12:39.217Z,97241.71
2023-02-07T10:15:36.458Z,97238.73
2023-02-07T10:18:23.082Z,97240.11
2023-02-07T10:21:03.655Z,97236.12
2023-02-07T10:24:05.389Z,97236.10
2023-02-07T10:26:41.021Z,97232.20
2023-02-07T10:29:17.786Z,97227.58
2023-02-07T10:31:54.010Z,97222.14
2023-02-07T10:34:31.846Z,97211.14
2023-02-07T10:37:02.432Z,97205.63
2023-02-07T10:39:39.600Z,97192.31
2023-02-07T10:42:15.418Z,97181.59
2023-02-07T10:44:44.213Z,97175.52
2023-02-07T10:47:19.243Z,97167.77
2023-02-07T10:49:50.840Z,97166.41
2023-02-07T10:52:39.971Z,97162.91
2023-02-07T10:55:10.483Z,97155.84
2023-02-07T10:57:39.596Z,97157.07
2023-02-07T11:00:30.144Z,97159.50
2023-02-07T11:03:06.961Z,97153.55
2023-02-07T11:05:41.565Z,97152.96
2023-02-07T11:08:15.586Z,97147.84
2023-02-07T11:10:45.563Z,97147.02
2023-02-07T11:13:16.575Z,97142.83
2023-02-07T11:16:04.210Z,97137.52
2023-02-07T11:18:54.058Z,97136.61
2023-02-07T11:21:34.216Z,97138.97
2023-02-07T11:24:19.554Z,97139.60
2023-02-07T11:26:53.522Z,97136.08
2023-02-07T11:29:25.098Z,97133.48
2023-02-07T11:31:55.860Z,97135.30
2023-02-07T11:34:44.232Z,97128.24
2023-02-07T11:37:30.653Z,97128.08
2023-02-07T11:40:31.167Z,97127.91
2023-02-07T11:43:12.648Z,97123.34
2023-02-07T11:45:45.026Z,97120.91
2023-02-07T11:48:26.913Z,97121.33
2023-02-07T11:50:58.262Z,97112.54
2023-02-07T11:53:40.433Z,97113.13
2023-02-07T11:56:41.208Z,97115.80
2023-02-07T11:59:36.312Z,97118.80
2023-02-07T12:02:18.954Z,97119.39
2023-02-07T12:04:47.557Z,97119.86
2023-02-07T12:07:25.956Z,97121.02
2023-02-07T12:09:59.658Z,97118.64
2023-02-07T12:12:43.975Z,97123.77
2023-02-07T12:15:23.745Z,97128.91
2023-02-07T12:18:10.054Z,97127.35
2023-02-07T12:21:01.027Z,97129.23
2023-02-07T12:23:45.388Z,97129.77
2023-02-07T12:26:36.803Z,97136.89
2023-02-07T12:29:21.872Z,97138.44
2023-02-07T12:32:02.375Z,97140.75
2023-02-07T12:34:49.162Z,97140.73
2023-02-07T12:37:32.747Z,97146.57
2023-02-07T12:40:29.315Z,97142.46
2023-02-07T12:43:12.690Z,97140.22
2023-02-07T12:45:56.012Z,97134.84
2023-02-07T12:48:42.788Z,97143.19
2023-02-07T12:51:19.768Z,97148.78
2023-02-07T12:54:30.330Z,97150.38
2023-02-07T12:57:08.373Z,97148.67
2023-02-07T12:59:40.529Z,97146.68
2023-02-07T13:02:29.341Z,97147.22
2023-02-07T13:05:25.283Z,97142.26
2023-02-07T13:08:38.406Z,97142.15
2023-02-07T13:11:25.878Z,97143.31
2023-02-07T13:14:12.530Z,97144.33
2023-02-07T13:16:59.141Z,97142.54
2023-02-07T13:19:44.727Z,97141.52
2023-02-07T13:22:18.732Z,97137.60
2023-02-07T13:24:48.190Z,97142.02
2023-02-07T13:27:22.040Z,97142.21
2023-02-07T13:29:51.528Z,97140.80
2023-02-07T13:32:24.630Z,97145.82
2023-02-07T13:34:58.379Z,97140.99
2023-02-07T13:37:53.048Z,97136.08
2023-02-07T13:40:34.409Z,97132.39
2023-02-07T13:44:01.569Z,97135.61
2023-02-07T13:46:55.870Z,97136.27
2023-02-07T13:49:53.870Z,97138.69
2023-02-07T13:52:28.050Z,97133.52
2023-02-07T13:55:15.372Z,97133.02
2023-02-07T13:58:03.216Z,97132.48
2023-02-07T14:00:52.969Z,97142.27
2023-02-07T14:03:27.897Z,97146.37
2023-02-07T14:06:14.480Z,97154.61
2023-02-07T14:08:45.015Z,97157.42
2023-02-07T14:11:32.805Z,97163.27
2023-02-07T14:14:07.117Z,97172.16
2023-02-07T14:16:51.571Z,97178.77
2023-02-07T14:19:41.672Z,97188.80
2023-02-07T14:22:31.428Z,97193.41
2023-02-07T14:24:59.753Z,97204.20
2023-02-07T14:27:35.392Z,97206.26
2023-02-07T14:30:12.695Z,97213.83
2023-02-07T14:33:12.159Z,97219.94
2023-02-07T14:36:14.241Z,97227.65
2023-02-07T14:38:58.882Z,97229.39
2023-02-07T14:41:36.921Z,97227.20
2023-02-07T14:44:35.845Z,97229.58
2023-02-07T14:47:06.733Z,97238.65
2023-02-07T14:49:51.290Z,97238.13
2023-02-07T14:52:39.114Z,97237.58
2023-02-07T14:55:22.353Z,97240.70
2023-02-07T14:58:01.254Z,97237.45
2023-02-07T15:00:48.920Z,97242.67
2023-02-07T15:03:19.445Z,97248.80
2023-02-07T15:06:01.532Z,97250.29
2023-02-07T15:08:34.463Z,97249.55
2023-02-07T15:11:05.518Z,97256.52
2023-02-07T15:13:44.073Z,97258.61
2023-02-07T15:16:19.737Z,97258.05
2023-02-07T15:18:53.638Z,97257.41
2023-02-07T15:21:43.084Z,97259.69
2023-02-07T15:24:37.137Z,97265.89
2023-02-07T15:27:27.777Z,97271.39
2023-02-07T15:29:57.405Z,97273.95
2023-02-07T15:32:33.165Z,97269.24
2023-02-07T15:35:40.778Z,97267.11
2023-02-07T15:38:23.289Z,97267.26
2023-02-07T15:40:53.639Z,97268.66
2023-02-07T15:43:33.747Z,97267.86
2023-02-07T15:46:11.424Z,97278.98
2023-02-07T15:48:49.388Z,97288.21
2023-02-07T15:51:21.099Z,97287.91
2023-02-07T15:53:51.961Z,97290.95
2023-02-07T15:56:20.310Z,97292.67
2023-02-07T15:58:50.174Z,97296.58
2023-02-07T16:01:39.415Z,97300.68
2023-02-07T16:04:09.618Z,97303.65
2023-02-07T16:06:37.852Z,97302.98
2023-02-07T16:09:06.172Z,97303.75
2023-02-07T16:11:37.658Z,97308.00
2023-02-07T16:14:25.936Z,97307.27
2023-02-07T16:16:56.301Z,97310.62
2023-02-07T16:19:28.225Z,97312.06
2023-02-07T16:22:27.515Z,97320.50
2023-02-07T16:24:59.897Z,97324.36
2023-02-07T16:27:31.976Z,97327.77
2023-02-07T16:30:03.619Z,97328.73
2023-02-07T16:32:34.141Z,97332.66
2023-02-07T16:35:02.157Z,97337.67
2023-02-07T16:37:30.431Z,97343.98
2023-02-07T16:39:58.867Z,97344.02
2023-02-07T16:42:27.031Z,97344.05
2023-02-07T16:44:55.114Z,97350.48
2023-02-07T16:47:23.892Z,97347.33
2023-02-07T16:49:51.993Z,97347.99
2023-02-07T16:52:20.045Z,97354.38
2023-02-07T16:54:48.519Z,97356.38
2023-02-07T16:57:17.099Z,97348.36
2023-02-07T16:59:45.179Z,97346.16
2023-02-07T17:02:16.783Z,97343.69
2023-02-07T17:04:45.149Z,97346.04
2023-02-07T17:07:13.389Z,97345.13
2023-02-07T17:09:43.184Z,97350.66
2023-02-07T17:12:11.260Z,97354.81
2023-02-07T17:14:39.431Z,97355.23
2023-02-07T17:17:07.913Z,97354.27
2023-02-07T17:19:35.983Z,97352.94
2023-02-07T17:22:05.079Z,97355.66
2023-02-07T17:24:33.171Z,97354.86
2023-02-07T17:27:01.464Z,97359.75
2023-02-07T17:29:30.218Z,97364.60
2023-02-07T17:31:58.330Z,97361.43
2023-02-07T17:34:27.099Z,97361.77
2023-02-07T17:36:55.159Z,97365.19
2023-02-07T17:39:23.315Z,97364.83
2023-02-07T17:41:51.360Z,97366.97
2023-02-07T17:44:22.446Z,97370.92
2023-02-07T17:46:50.479Z,97371.55
2023-02-07T17:49:18.669Z,97377.61
2023-02-07T17:51:47.058Z,97378.86
2023-02-07T17:54:15.072Z,97379.48
2023-02-07T17:56:43.397Z,97376.09
2023-02-07T17:59:23.624Z,97382.17
2023-02-07T18:01:52.134Z,97385.61
2023-02-07T18:04:20.408Z,97386.70
2023-02-07T18:06:49.297Z,97391.33
2023-02-07T18:09:19.873Z,97395.18
2023-02-07T18:11:49.120Z,97391.02
2023-02-07T18:14:17.124Z,97390.52
2023-02-07T18:16:46.288Z,97385.27
2023-02-07T18:19:18.560Z,97387.73
2023-02-07T18:21:47.043Z,97388.77
2023-02-07T18:24:15.319Z,97391.45
2023-02-07T18:26:46.583Z,97394.39
2023-02-07T18:29:14.849Z,97396.84
2023-02-07T18:31:43.693Z,97395.75
2023-02-07T18:34:12.023Z,97398.22
2023-02-07T18:36:40.804Z,97396.32
2023-02-07T18:39:11.112Z,97397.04
2023-02-07T18:41:39.527Z,97392.73
2023-02-07T18:44:08.077Z,97388.98
2023-02-07T18:46:36.248Z,97396.79
2023-02-07T18:49:04.309Z,97400.80
2023-02-07T18:51:34.235Z,97400.31
2023-02-07T18:54:02.450Z,97395.77
2023-02-07T18:56:30.989Z,97408.12
2023-02-07T18:58:59.291Z,97408.23
2023-02-07T19:01:30.477Z,97410.48
2023-02-07T19:04:01.639Z,97408.27
2023-02-07T19:06:32.738Z,97406.17
2023-02-07T19:09:00.980Z,97408.31
2023-02-07T19:11:29.144Z,97406.35
2023-02-07T19:13:57.352Z,97406.39
2023-02-07T19:16:25.601Z,97400.41
2023-02-07T19:18:54.068Z,97401.44
2023-02-07T19:21:27.239Z,97399.28
2023-02-07T19:23:57.163Z,97391.73
2023-02-07T19:26:25.532Z,97387.42
2023-02-07T19:28:53.829Z,97384.79
2023-02-07T19:31:22.900Z,97381.47
2023-02-07T19:33:52.252Z,97381.66
2023-02-07T19:36:23.263Z,97380.27
2023-02-07T19:38:55.035Z,97382.55
2023-02-07T19:41:28.524Z,97378.35
2023-02-07T19:43:57.335Z,97371.21
2023-02-07T19:46:25.496Z,97368.39
2023-02-07T19:48:54.894Z,97360.58
2023-02-07T19:51:25.352Z,97358.24
2023-02-07T19:53:54.810Z,97359.02
2023-02-07T19:56:25.074Z,97354.30
2023-02-07T19:58:54.766Z,97354.42
2023-02-07T20:01:25.559Z,97362.15
2023-02-07T20:03:55.870Z,97362.91
2023-02-07T20:06:29.293Z,97364.54
2023-02-07T20:08:59.021Z,97364.80
2023-02-07T20:11:28.259Z,97366.51
2023-02-07T20:14:03.488Z,97362.55
2023-02-07T20:16:36.806Z,97357.79
2023-02-07T20:19:07.960Z,97354.38
2023-02-07T20:21:37.192Z,97348.27
2023-02-07T20:24:05.901Z,97347.13
2023-02-07T20:26:44.458Z,97362.52
2023-02-07T20:29:17.502Z,97367.61
2023-02-07T20:31:47.550Z,97362.62
2023-02-07T20:34:16.581Z,97366.56
2023-02-07T20:36:44.769Z,97365.73
2023-02-07T20:39:16.770Z,97361.23
2023-02-07T20:41:47.008Z,97358.49
2023-02-07T20:44:21.351Z,97372.21
2023-02-07T20:46:50.970Z,97367.13
2023-02-07T20:49:22.474Z,97364.66
2023-02-07T20:51:51.933Z,97368.68
2023-02-07T20:54:23.923Z,97366.59
2023-02-07T20:56:53.813Z,97369.17
2023-02-07T20:59:24.868Z,97366.67
2023-02-07T21:01:54.383Z,97364.85
2023-02-07T21:04:23.249Z,97368.96
2023-02-07T21:06:52.765Z,97369.13
2023-02-07T21:09:21.082Z,97367.23
2023-02-07T21:11:51.554Z,97367.84
2023-02-07T21:14:30.900Z,97371.02
2023-02-07T21:17:02.138Z,97374.30
2023-02-07T21:19:30.318Z,97375.30
2023-02-07T21:21:58.930Z,97373.04
2023-02-07T21:24:27.481Z,97370.96
2023-02-07T21:26:58.060Z,97372.55
2023-02-07T21:29:28.141Z,97370.41
2023-02-07T21:31:56.382Z,97374.56
2023-02-07T21:34:25.772Z,97379.43
2023-02-07T21:36:54.701Z,97385.05
2023-02-07T21:39:24.471Z,97383.71
2023-02-07T21:41:52.776Z,97388.27
2023-02-07T21:44:22.312Z,97379.73
2023-02-07T21:46:51.490Z,97381.63
2023-02-07T21:49:21.047Z,97382.00
2023-02-07T21:51:51.266Z,97382.23
2023-02-07T21:54:19.885Z,97380.05
2023-02-07T21:56:49.810Z,97379.55
2023-02-07T21:59:20.479Z,97383.70
2023-02-07T22:01:48.959Z,97387.02
2023-02-07T22:04:18.026Z,97389.34
2023-02-07T22:06:48.195Z,97387.93
2023-02-07T22:09:18.531Z,97386.07
2023-02-07T22:11:46.573Z,97390.77
2023-02-07T22:14:16.031Z,97392.63
2023-02-07T22:16:44.278Z,97399.86
2023-02-07T22:19:14.766Z,97398.14
2023-02-07T22:21:44.372Z,97400.45
2023-02-07T22:24:14.689Z,97401.04
2023-02-07T22:26:43.264Z,97398.44
2023-02-07T22:29:12.245Z,97401.59
2023-02-07T22:31:41.731Z,97405.59
2023-02-07T22:34:12.291Z,97405.98
2023-02-07T22:36:43.402Z,97403.67
2023-02-07T22:39:14.150Z,97406.27
2023-02-07T22:41:42.633Z,97407.30
2023-02-07T22:44:11.456Z,97410.80
2023-02-07T22:46:39.931Z,97412.23
2023-02-07T22:49:08.169Z,97416.26
2023-02-07T22:51:37.759Z,97419.73
2023-02-07T22:54:08.789Z,97413.64
2023-02-07T22:56:38.356Z,97414.66
2023-02-07T22:59:06.922Z,97409.65
2023-02-07T23:01:39.405Z,97413.57
2023-02-07T23:04:13.439Z,97415.06
2023-02-07T23:06:41.867Z,97420.34
2023-02-07T23:09:10.452Z,97419.89
2023-02-07T23:11:39.550Z,97414.02
2023-02-07T23:14:07.819Z,97417.21
2023-02-07T23:16:36.921Z,97426.19
2023-02-07T23:19:11.129Z,97425.52
2023-02-07T23:21:39.195Z,97431.11
2023-02-07T23:24:07.476Z,97428.34
2023-02-07T23:26:36.161Z,97425.98
2023-02-07T23:29:05.266Z,97426.64
2023-02-07T23:31:33.653Z,97425.90
2023-02-07T23:34:02.122Z,97427.55
2023-02-07T23:36:30.599Z,97432.42
2023-02-07T23:38:58.671Z,97432.19
2023-02-07T23:41:27.116Z,97433.20
2023-02-07T23:43:57.161Z,97428.23
2023-02-07T23:46:25.480Z,97421.34
2023-02-07T23:48:53.921Z,97418.63
2023-02-07T23:51:22.123Z,97420.81
2023-02-07T23:53:50.782Z,97417.62
2023-02-07T23:56:23.971Z,97412.20
2023-02-07T23:58:53.212Z,97405.92
